Dom Cavati, Brazil
Current Conditions -  °F | °C
As of 10:00 PM on Tuesday 21 Oct 2014 (Local Time) from SBIP Reporting Station
Broken Clouds Broken Clouds  
Wind Chill: 73°   Ceiling: 5000
Heat Index: 73°   Visibility: 6mi
Dew Point: 61°   Wind: 6mph
Humidity: 65%   Direction: 230°SW
Pressure: 30.03"   Gusts: NA
Location:  19.37°S, 42.11°W
Report Text: SBIP 220000Z 23005KT 9999 SCT030 BKN050 BKN100 23/16 Q1017
Loading
Personal Weather Stations






























Interactive Weather Map
Tropical Storm Tracking
New forecast layout! Learn more

10-Day Weather Forecast

Advertisements
Track Severe Weather on mobile